Time;durP1;ratioP1;P1;durP2;ratioP2;P2;SDS_P1;SDS_P2;PMS_P1;PMS_P2;Temp;Humidity;BMP_temperature;BMP_pressure;BME280_temperature;BME280_humidity;BME280_pressure;Samples;Min_cycle;Max_cycle;Signal;HPM_P1;HPM_P2
2022/04/22 00:02:35;;;;;;;7.40;3.85;;;;;;;11.42;100.00;100687.28;6224751;23;20031;-55
2022/04/22 00:05:19;;;;;;;;;;;;;;;11.49;100.00;100707.59;6225310;23;20374;-58
2022/04/22 00:08:05;;;;;;;6.43;3.72;;;;;;;11.41;100.00;100698.81;6224860;23;20006;-57
2022/04/22 00:13:54;;;;;;;4.97;3.28;;;;;;;11.40;100.00;100716.50;6225158;23;20358;-58
2022/04/22 00:16:38;;;;;;;5.70;3.33;;;;;;;11.41;100.00;100702.38;6192034;23;20040;-58
2022/04/22 00:19:23;;;;;;;4.18;2.70;;;;;;;11.40;100.00;100705.91;6225159;23;20078;-56
2022/04/22 00:22:07;;;;;;;3.45;2.88;;;;;;;11.47;100.00;100701.44;6214867;23;20029;-57
2022/04/22 00:24:53;;;;;;;4.85;3.15;;;;;;;11.42;100.00;100701.47;6214824;23;20063;-58
2022/04/22 00:27:39;;;;;;;4.43;3.05;;;;;;;11.44;100.00;100701.47;6225223;23;20043;-57
2022/04/22 00:30:24;;;;;;;3.72;2.85;;;;;;;11.49;100.00;100700.53;6202509;23;20086;-58
2022/04/22 00:33:08;;;;;;;3.85;3.13;;;;;;;11.47;100.00;100691.69;6225201;23;20031;-58
2022/04/22 00:35:52;;;;;;;5.28;3.33;;;;;;;11.45;100.00;100697.91;6202523;23;20083;-57
2022/04/22 00:38:37;;;;;;;5.03;3.28;;;;;;;11.43;100.00;100705.00;6224984;23;20154;-58
2022/04/22 00:41:22;;;;;;;4.70;3.03;;;;;;;11.38;100.00;100688.22;6214387;23;20367;-60
2022/04/22 00:44:07;;;;;;;4.03;2.92;;;;;;;11.37;100.00;100702.41;6191991;23;20031;-56
2022/04/22 00:46:52;;;;;;;4.53;3.03;;;;;;;11.38;100.00;100712.13;6180643;23;20477;-57
2022/04/22 00:49:37;;;;;;;3.85;3.00;;;;;;;11.34;100.00;100703.31;6214071;23;20023;-58
2022/04/22 00:52:22;;;;;;;3.88;3.13;;;;;;;11.38;100.00;100696.19;6225024;23;20485;-58
2022/04/22 00:55:08;;;;;;;;;;;;;;;11.48;100.00;100697.88;6225065;23;20108;-57
2022/04/22 00:57:53;;;;;;;6.53;3.80;;;;;;;11.27;100.00;100700.72;6214657;23;20242;-56
2022/04/22 01:00:39;;;;;;;5.15;3.05;;;;;;;11.25;100.00;100699.84;6224400;23;20513;-57
2022/04/22 01:03:23;;;;;;;4.78;3.50;;;;;;;11.29;100.00;100698.94;6192545;23;20033;-62
2022/04/22 01:12:15;;;;;;;5.75;3.38;;;;;;;11.30;100.00;100685.63;6224158;23;20414;-57
2022/04/22 01:14:59;;;;;;;6.53;3.70;;;;;;;11.26;100.00;100680.34;6224806;23;20031;-56
2022/04/22 01:17:45;;;;;;;6.35;3.80;;;;;;;11.28;100.00;100686.56;6188377;23;20351;-56
2022/04/22 01:20:29;;;;;;;5.07;3.50;;;;;;;11.22;100.00;100670.66;6223450;23;20032;-58
2022/04/22 01:23:14;;;;;;;4.97;3.13;;;;;;;11.25;100.00;100682.16;6225533;23;20028;-57
2022/04/22 01:26:00;;;;;;;5.00;3.40;;;;;;;11.28;100.00;100679.44;6216792;23;20031;-56
2022/04/22 01:28:45;;;;;;;5.70;3.53;;;;;;;11.31;100.00;100678.56;6226244;23;20102;-61
2022/04/22 01:31:30;;;;;;;9.38;4.57;;;;;;;11.30;100.00;100682.97;6224068;23;20063;-57
2022/04/22 01:34:15;;;;;;;7.47;4.45;;;;;;;11.30;100.00;100679.44;6224577;23;20027;-56
2022/04/22 01:37:01;;;;;;;6.97;4.75;;;;;;;11.26;100.00;100675.94;6225998;23;20375;-56
2022/04/22 01:39:46;;;;;;;6.78;5.63;;;;;;;11.03;100.00;100639.88;6226062;23;20362;-57
2022/04/22 01:42:30;;;;;;;8.93;5.60;;;;;;;11.25;100.00;100681.25;6225925;23;20039;-56
2022/04/22 01:45:15;;;;;;;11.10;6.90;;;;;;;11.26;100.00;100675.03;6223531;23;20032;-57
2022/04/22 01:48:02;;;;;;;9.68;6.60;;;;;;;10.99;100.00;100646.09;6225727;23;20051;-58
2022/04/22 01:50:46;;;;;;;7.80;5.97;;;;;;;11.11;100.00;100662.78;6226300;23;20047;-57
2022/04/22 01:53:31;;;;;;;10.13;7.50;;;;;;;11.16;100.00;100681.34;6203813;23;20027;-55
2022/04/22 01:56:15;;;;;;;13.57;8.50;;;;;;;11.14;100.00;100675.16;6226034;23;20083;-56
2022/04/22 01:59:00;;;;;;;10.55;8.15;;;;;;;10.96;100.00;100659.38;6219157;23;20030;-56
2022/04/22 02:01:44;;;;;;;12.45;9.15;;;;;;;11.05;100.00;100669.91;6186954;23;20055;-59
2022/04/22 02:04:29;;;;;;;12.75;9.43;;;;;;;11.08;100.00;100673.41;6219857;23;20036;-60
2022/04/22 02:07:13;;;;;;;12.30;9.65;;;;;;;11.11;100.00;100685.81;6186218;23;20083;-56
2022/04/22 02:09:58;;;;;;;12.10;9.60;;;;;;;11.01;100.00;100662.88;6216261;23;20035;-56
2022/04/22 02:12:42;;;;;;;12.80;10.27;;;;;;;11.01;100.00;100658.47;6208651;23;20100;-57
2022/04/22 02:15:28;;;;;;;15.20;10.23;;;;;;;11.20;100.00;100693.69;6218754;23;20027;-56
2022/04/22 02:18:12;;;;;;;;;;;;;;;11.27;100.00;100688.31;6208932;23;20031;-59
2022/04/22 02:20:56;;;;;;;14.18;10.05;;;;;;;11.20;100.00;100685.72;6196512;23;19923;-56
2022/04/22 02:23:40;;;;;;;13.90;10.55;;;;;;;11.21;100.00;100693.69;6209704;23;20024;-65
2022/04/22 02:26:25;;;;;;;13.07;9.60;;;;;;;11.15;100.00;100680.44;6221119;23;20033;-57
2022/04/22 02:29:10;;;;;;;14.05;9.93;;;;;;;11.14;100.00;100686.66;6218546;23;20074;-59
2022/04/22 02:31:55;;;;;;;12.25;9.50;;;;;;;11.18;100.00;100690.16;6198403;23;20365;-62
2022/04/22 02:34:39;;;;;;;13.85;9.98;;;;;;;11.02;100.00;100668.16;6197272;23;20694;-60
2022/04/22 02:37:24;;;;;;;13.80;9.40;;;;;;;11.18;100.00;100700.78;6220728;23;20094;-64
2022/04/22 02:40:10;;;;;;;13.07;9.57;;;;;;;11.17;100.00;100696.38;6198253;23;20027;-59
2022/04/22 02:46:15;;;;;;;12.60;9.48;;;;;;;11.00;100.00;100659.31;6126382;23;20449;-60
2022/04/22 02:49:00;;;;;;;15.90;9.85;;;;;;;11.12;100.00;100691.06;6128521;23;20520;-58
2022/04/22 02:51:44;;;;;;;14.00;9.50;;;;;;;11.18;100.00;100698.13;6106528;23;20037;-60
2022/04/22 02:54:34;;;;;;;14.02;9.65;;;;;;;11.20;100.00;100696.34;6104797;23;20163;-55
2022/04/22 02:57:18;;;;;;;11.90;9.57;;;;;;;11.17;100.00;100691.06;6108058;23;20037;-58
2022/04/22 03:00:03;;;;;;;11.73;9.47;;;;;;;11.19;100.00;100697.25;6122638;23;20072;-66
2022/04/22 03:02:47;;;;;;;13.10;9.85;;;;;;;11.17;100.00;100688.41;6103879;23;20301;-61
2022/04/22 03:05:34;;;;;;;12.13;10.10;;;;;;;11.08;100.00;100668.09;6122118;23;20129;-58
2022/04/22 03:08:18;;;;;;;12.85;9.88;;;;;;;11.23;100.00;100696.34;6094543;23;20076;-55
2022/04/22 03:11:03;;;;;;;13.27;10.27;;;;;;;11.09;100.00;100675.19;6125376;23;20161;-58
2022/04/22 03:13:51;;;;;;;14.27;8.95;;;;;;;11.09;100.00;100674.31;6126250;23;20498;-63
2022/04/22 03:16:36;;;;;;;11.00;8.60;;;;;;;11.15;100.00;100696.38;6128439;23;20032;-61
2022/04/22 03:19:20;;;;;;;11.35;8.00;;;;;;;11.11;100.00;100680.50;6128120;23;20039;-63
2022/04/22 03:22:05;;;;;;;10.50;8.18;;;;;;;11.27;100.00;100701.59;6220204;23;20042;-57
2022/04/22 03:24:49;;;;;;;10.57;8.10;;;;;;;11.27;100.00;100700.72;6217950;23;20102;-56
2022/04/22 03:27:34;;;;;;;13.27;8.20;;;;;;;11.31;100.00;100699.81;6210447;23;20031;-59
2022/04/22 03:30:18;;;;;;;11.18;7.47;;;;;;;11.15;100.00;100676.94;6209392;23;20030;-55
2022/04/22 03:33:02;;;;;;;15.38;7.70;;;;;;;11.24;100.00;100698.09;6220153;23;20097;-61
2022/04/22 03:35:51;;;;;;;13.25;7.57;;;;;;;11.29;100.00;100709.53;6219837;23;20070;-57
2022/04/22 03:38:36;;;;;;;13.30;8.20;;;;;;;11.14;100.00;100675.16;6218102;23;20083;-66
2022/04/22 03:41:20;;;;;;;10.63;8.32;;;;;;;11.12;100.00;100680.47;6220126;23;20028;-61
2022/04/22 03:44:05;;;;;;;11.25;9.13;;;;;;;11.20;100.00;100701.66;6217648;23;20067;-61
2022/04/22 03:46:49;;;;;;;14.80;8.77;;;;;;;11.22;100.00;100694.53;6220417;23;20051;-64
2022/04/22 03:49:34;;;;;;;15.02;9.02;;;;;;;11.24;100.00;100692.78;6165896;23;20032;-61
2022/04/22 03:52:18;;;;;;;12.55;8.18;;;;;;;11.31;100.00;100708.63;6187318;23;20055;-60
2022/04/22 03:55:03;;;;;;;12.55;7.95;;;;;;;11.14;100.00;100670.72;6197498;23;20111;-59
2022/04/22 04:00:51;;;;;;;11.18;7.40;;;;;;;11.23;100.00;100705.16;6223823;23;20043;-58
2022/04/22 04:03:35;;;;;;;10.18;6.72;;;;;;;11.14;100.00;100696.38;6224809;23;20032;-64
2022/04/22 04:06:19;;;;;;;12.23;7.38;;;;;;;11.12;100.00;100712.31;6189919;23;20540;-64
2022/04/22 04:18:13;;;;;;;8.48;5.72;;;;;;;11.37;100.00;100707.72;6217146;23;20027;-64
2022/04/22 04:24:03;;;;;;;8.63;5.75;;;;;;;11.49;100.00;100700.53;6219456;23;20036;-58
2022/04/22 04:26:48;;;;;;;8.18;5.15;;;;;;;11.50;100.00;100696.97;6184715;23;20479;-62
2022/04/22 04:29:34;;;;;;;7.38;5.50;;;;;;;11.56;100.00;100694.28;6186976;23;20047;-58
2022/04/22 04:32:19;;;;;;;6.80;4.40;;;;;;;11.59;100.00;100696.88;6144096;23;20035;-58
2022/04/22 04:35:04;;;;;;;8.95;5.10;;;;;;;11.55;100.00;100683.66;6221578;23;20030;-59
2022/04/22 04:37:48;;;;;;;6.50;4.05;;;;;;;11.62;100.00;100690.69;6188412;23;20082;-58
2022/04/22 04:40:33;;;;;;;7.22;4.07;;;;;;;11.68;100.00;100696.84;6208396;23;20052;-58
2022/04/22 04:43:18;;;;;;;6.68;3.90;;;;;;;11.74;100.00;100698.53;6204654;23;20027;-63
2022/04/22 04:46:03;;;;;;;8.80;4.30;;;;;;;11.74;100.00;100695.88;6224108;23;20035;-64
2022/04/22 04:48:47;;;;;;;8.45;4.40;;;;;;;11.77;100.00;100699.41;6202871;23;20070;-60
2022/04/22 04:51:32;;;;;;;6.63;5.03;;;;;;;11.74;100.00;100674.63;6192092;23;20087;-56
2022/04/22 04:54:17;;;;;;;17.40;3.70;;;;;;;11.98;100.00;100693.84;6180328;23;20023;-60
2022/04/22 04:57:03;;;;;;;6.53;3.53;;;;;;;11.95;100.00;100691.22;6191623;23;20035;-58
2022/04/22 04:59:47;;;;;;;8.63;4.10;;;;;;;12.08;100.00;100691.97;6204268;23;20059;-59
2022/04/22 05:02:36;;;;;;;7.05;4.18;;;;;;;12.15;100.00;100686.56;6215192;23;20079;-60
2022/04/22 05:05:21;;;;;;;5.63;3.45;;;;;;;12.17;100.00;100691.84;6172679;23;20497;-58
2022/04/22 05:08:07;;;;;;;5.32;3.78;;;;;;;12.29;100.00;100695.28;6203615;23;20484;-60
2022/04/22 05:10:51;;;;;;;7.25;3.65;;;;;;;12.22;100.00;100674.09;6172305;23;20138;-59
2022/04/22 05:13:35;;;;;;;6.00;3.90;;;;;;;12.30;100.00;100666.91;6225533;23;20031;-57
2022/04/22 05:16:20;;;;;;;7.47;4.15;;;;;;;12.52;100.00;100689.66;6225658;23;20028;-59
2022/04/22 05:19:04;;;;;;;8.77;3.50;;;;;;;12.33;100.00;100670.41;6215558;23;20031;-59
2022/04/22 05:21:49;;;;;;;6.78;3.58;;;;;;;12.49;100.00;100687.03;6193474;23;20351;-56
2022/04/22 05:24:37;;;;;;;6.13;2.55;;;;;;;12.48;100.00;100670.19;6226206;23;20051;-59
2022/04/22 05:27:21;;;;;;;5.25;2.78;;;;;;;12.52;100.00;100687.88;6225268;23;20051;-59
2022/04/22 05:33:10;;;;;;;6.57;3.10;;;;;;;12.43;100.00;100685.31;6224424;23;20411;-60
2022/04/22 05:35:55;;;;;;;6.93;3.90;;;;;;;12.59;100.00;100684.22;6226818;23;20083;-59
2022/04/22 05:38:39;;;;;;;5.97;2.67;;;;;;;12.77;100.00;100683.97;6225852;23;20418;-60
2022/04/22 05:41:24;;;;;;;9.45;2.88;;;;;;;12.78;100.00;100680.41;6225905;23;20027;-59
2022/04/22 05:44:08;;;;;;;5.32;2.80;;;;;;;12.72;100.00;100659.22;6225462;23;20027;-58
2022/04/22 05:46:53;;;;;;;10.18;3.63;;;;;;;13.00;100.00;100687.22;6225415;23;20051;-59
2022/04/22 05:49:38;;;;;;;5.28;3.15;;;;;;;13.16;100.00;100701.16;6225438;23;20031;-59
2022/04/22 05:52:23;;;;;;;6.25;2.80;;;;;;;13.22;100.00;100693.09;6151251;23;20035;-58
2022/04/22 05:55:16;;;;;;;5.40;3.17;;;;;;;13.31;100.00;100696.50;6203066;23;20032;-59
2022/04/22 05:58:01;;;;;;;13.23;2.78;;;;;;;13.10;100.00;100671.97;6226205;23;20107;-59
2022/04/22 06:00:45;;;;;;;9.05;2.78;;;;;;;13.32;100.00;100697.34;6225387;23;20070;-57
2022/04/22 06:03:30;;;;;;;6.75;2.60;;;;;;;13.29;100.00;100690.28;6215186;23;20111;-57
2022/04/22 06:06:14;;;;;;;9.55;2.80;;;;;;;13.43;100.00;100695.41;6224903;23;20055;-60
2022/04/22 06:12:02;;;;;;;4.28;2.30;;;;;;;13.38;100.00;100687.47;6171333;23;20035;-60
2022/04/22 06:14:47;;;;;;;5.85;2.55;;;;;;;13.51;100.00;100691.72;6171555;23;20090;-58
2022/04/22 06:17:32;;;;;;;6.95;2.30;;;;;;;13.52;100.00;100677.47;6203074;23;20054;-58
2022/04/22 06:20:16;;;;;;;4.15;2.45;;;;;;;13.39;100.00;100661.72;6192211;23;20484;-58
2022/04/22 06:23:01;;;;;;;6.43;2.80;;;;;;;13.47;100.00;100681.13;6214996;23;20083;-58
2022/04/22 06:25:48;;;;;;;10.32;2.60;;;;;;;13.54;100.00;100682.78;6192758;23;20359;-59
2022/04/22 06:28:34;;;;;;;8.07;2.53;;;;;;;13.63;100.00;100690.59;6202076;23;20383;-60
2022/04/22 06:31:19;;;;;;;3.20;2.22;;;;;;;13.73;100.00;100693.06;6215417;23;20358;-59
2022/04/22 06:34:04;;;;;;;4.88;2.47;;;;;;;13.70;100.00;100678.94;6215609;23;20074;-60
2022/04/22 06:36:49;;;;;;;2.58;2.00;;;;;;;13.62;100.00;100668.38;6225020;23;20170;-59
2022/04/22 06:45:46;;;;;;;5.70;2.47;;;;;;;13.72;100.00;100695.75;6202750;23;20051;-57
2022/04/22 06:45:47;;;;;;;4.30;2.28;;;;;;;13.84;100.00;100684.88;6192803;23;20032;-64
2022/04/22 06:48:34;;;;;;;3.53;1.75;;;;;;;13.87;100.00;100690.16;6203017;23;20031;-57
2022/04/22 06:51:20;;;;;;;7.43;2.70;;;;;;;13.90;100.00;100679.44;6192651;23;20485;-57
2022/04/22 06:54:04;;;;;;;6.50;2.35;;;;;;;13.97;100.00;100678.41;6192258;23;20078;-58
2022/04/22 06:56:50;;;;;;;6.95;2.17;;;;;;;13.92;100.00;100674.94;6202192;23;20075;-61
2022/04/22 06:59:35;;;;;;;5.82;2.75;;;;;;;14.02;100.00;100683.66;6192471;23;20363;-58
2022/04/22 07:02:20;;;;;;;9.98;2.03;;;;;;;13.93;100.00;100668.72;6213258;23;20474;-59
2022/04/22 07:05:05;;;;;;;4.35;1.90;;;;;;;14.07;100.00;100679.09;6224792;23;20098;-59
2022/04/22 07:07:49;;;;;;;5.03;2.10;;;;;;;14.12;100.00;100683.44;6225176;23;20031;-59
2022/04/22 07:10:35;;;;;;;8.10;2.25;;;;;;;14.14;100.00;100684.28;6192192;23;20473;-58
2022/04/22 07:13:20;;;;;;;4.50;2.20;;;;;;;14.10;100.00;100655.94;6224976;23;20079;-60
2022/04/22 07:16:05;;;;;;;5.22;2.50;;;;;;;14.02;100.00;100632.97;6215877;23;20558;-60
2022/04/22 07:18:53;;;;;;;6.38;2.20;;;;;;;14.24;100.00;100661.88;6225115;23;20098;-57
2022/04/22 07:21:38;;;;;;;4.53;1.92;;;;;;;14.32;100.00;100678.59;6202209;23;20496;-58
2022/04/22 07:24:23;;;;;;;5.78;2.25;;;;;;;14.44;100.00;100678.34;6225001;23;20482;-59
2022/04/22 07:27:07;;;;;;;;;;;;;;;14.53;100.00;100671.94;6202943;23;20074;-56
2022/04/22 07:29:52;;;;;;;8.30;1.83;;;;;;;14.44;100.00;100662.34;6215310;23;19976;-58
2022/04/22 07:32:37;;;;;;;4.88;2.00;;;;;;;14.32;100.00;100646.59;6214741;23;20068;-58
2022/04/22 07:35:23;;;;;;;6.50;3.30;;;;;;;14.49;100.00;100641.78;6214969;23;20229;-59
2022/04/22 07:38:10;;;;;;;5.45;2.10;;;;;;;14.75;100.00;100665.25;6224677;23;20474;-59
2022/04/22 07:40:55;;;;;;;7.47;2.15;;;;;;;14.67;100.00;100665.38;6224678;23;20071;-59
2022/04/22 07:46:49;;;;;;;4.18;1.80;;;;;;;14.72;100.00;100662.63;6224516;23;20031;-58
2022/04/22 07:49:34;;;;;;;6.50;2.10;;;;;;;14.73;100.00;100664.38;6201762;23;20031;-59
2022/04/22 07:52:18;;;;;;;10.35;2.88;;;;;;;14.67;100.00;100676.06;6224921;23;20142;-59
2022/04/22 07:55:03;;;;;;;7.20;2.20;;;;;;;14.34;100.00;100668.78;6214663;23;20129;-59
2022/04/22 07:57:48;;;;;;;3.88;2.30;;;;;;;14.26;100.00;100673.41;6192834;23;20027;-58
2022/04/22 08:00:32;;;;;;;4.95;2.20;;;;;;;14.25;100.00;100668.09;6225789;23;20027;-59
2022/04/22 08:03:17;;;;;;;4.00;1.90;;;;;;;14.24;100.00;100669.03;6225268;23;20027;-60
2022/04/22 08:06:01;;;;;;;5.18;2.20;;;;;;;14.20;100.00;100638.81;6225380;23;20082;-58
2022/04/22 08:08:46;;;;;;;9.13;2.50;;;;;;;14.38;100.00;100640.25;6224763;23;20497;-56
2022/04/22 08:11:30;;;;;;;;;;;;;;;14.62;100.00;100648.59;6215032;23;20035;-59
2022/04/22 08:14:15;;;;;;;19.83;3.47;;;;;;;14.57;100.00;100637.16;6223429;23;19958;-58
2022/04/22 08:17:01;;;;;;;4.22;2.35;;;;;;;14.67;100.00;100648.50;6224238;23;20438;-57
2022/04/22 08:19:46;;;;;;;3.13;2.28;;;;;;;14.69;100.00;100636.88;6192188;23;20114;-57
2022/04/22 08:22:32;;;;;;;5.25;2.05;;;;;;;14.61;100.00;100609.50;6201169;23;20067;-56
2022/04/22 08:25:17;;;;;;;5.63;2.00;;;;;;;14.82;100.00;100640.13;6201558;23;20086;-57
2022/04/22 08:28:04;;;;;;;4.82;1.90;;;;;;;14.76;100.00;100634.94;6223910;23;20028;-59
2022/04/22 08:30:49;;;;;;;8.75;2.20;;;;;;;14.80;100.00;100636.63;6224029;23;20063;-57
2022/04/22 08:33:33;;;;;;;13.35;2.63;;;;;;;14.82;100.00;100640.13;6224392;23;20075;-58
2022/04/22 08:36:19;;;;;;;6.30;1.85;;;;;;;14.67;100.00;100616.47;6224002;23;20058;-58
2022/04/22 08:39:04;;;;;;;5.07;2.25;;;;;;;14.75;100.00;100636.72;6170024;23;20064;-60
2022/04/22 08:41:51;;;;;;;5.72;2.50;;;;;;;14.74;100.00;100637.66;6180606;23;20098;-60
2022/04/22 08:44:37;;;;;;;6.90;2.75;;;;;;;14.45;100.00;100618.75;6181004;23;20028;-58
2022/04/22 08:50:30;;;;;;;4.63;2.10;;;;;;;14.69;100.00;100633.31;6223963;23;19977;-58
2022/04/22 08:53:21;;;;;;;5.70;2.08;;;;;;;14.59;100.00;100631.78;6201130;23;20409;-59
2022/04/22 08:56:10;;;;;;;8.85;2.40;;;;;;;14.56;100.00;100619.38;6221991;23;20071;-59
2022/04/22 08:58:55;;;;;;;14.15;2.95;;;;;;;14.61;100.00;100629.94;6224723;23;20031;-57
2022/04/22 09:01:39;;;;;;;4.28;1.92;;;;;;;14.61;100.00;100629.94;6213689;23;20063;-59
2022/04/22 09:04:26;;;;;;;4.53;2.10;;;;;;;14.59;100.00;100621.97;6225285;23;20472;-58
2022/04/22 09:07:13;;;;;;;5.88;2.03;;;;;;;14.57;100.00;100614.91;6212401;23;20063;-57
2022/04/22 09:09:58;;;;;;;7.70;1.80;;;;;;;14.56;100.00;100619.38;6224196;23;20383;-57
2022/04/22 09:12:52;;;;;;;4.63;2.35;;;;;;;14.84;100.00;100611.63;6201229;23;20059;-55
2022/04/22 09:15:39;;;;;;;5.18;2.22;;;;;;;14.95;100.00;100593.53;6202098;23;20086;-58
2022/04/22 09:18:26;;;;;;;3.78;2.08;;;;;;;15.45;100.00;100620.75;6201863;23;20031;-58
2022/04/22 09:21:19;;;;;;;2.50;2.03;;;;;;;15.77;100.00;100622.56;6190999;23;20067;-58
2022/04/22 09:24:13;;;;;;;4.32;2.45;;;;;;;15.99;100.00;100615.72;6214902;23;20040;-58
2022/04/22 09:27:10;;;;;;;6.78;2.30;;;;;;;16.09;100.00;100614.50;6191315;23;20027;-59
2022/04/22 09:29:56;;;;;;;5.40;1.90;;;;;;;15.83;100.00;100614.38;6214357;23;20116;-57
2022/04/22 09:32:44;;;;;;;9.05;2.45;;;;;;;15.74;100.00;100609.31;6171007;23;20032;-58
2022/04/22 09:35:29;;;;;;;7.18;2.45;;;;;;;15.84;100.00;100606.31;6191153;23;20027;-59
2022/04/22 09:44:35;;;;;;;10.90;2.85;;;;;;;15.93;100.00;100597.16;6132556;23;20117;-58
2022/04/22 09:47:20;;;;;;;3.80;2.17;;;;;;;16.03;100.00;100602.22;6133678;23;20105;-59
2022/04/22 09:50:10;;;;;;;;;;;;;;;16.14;100.00;100593.88;6113932;23;20040;-60
2022/04/22 09:53:04;;;;;;;4.35;2.10;;;;;;;16.00;100.00;100593.38;6133736;23;20291;-59
2022/04/22 09:55:53;;;;;;;4.32;2.50;;;;;;;15.97;100.00;100589.00;6062710;23;20033;-58
2022/04/22 09:58:37;;;;;;;5.95;2.90;;;;;;;15.83;100.00;100563.56;6103628;23;20045;-57
2022/04/22 10:01:24;;;;;;;3.95;2.40;;;;;;;16.02;100.00;100586.19;6104191;23;20080;-60
2022/04/22 10:04:09;;;;;;;8.50;2.83;;;;;;;16.11;100.00;100586.81;6062076;23;20029;-62
2022/04/22 10:06:56;;;;;;;5.47;2.35;;;;;;;16.30;100.00;100592.50;6073970;23;20034;-61
2022/04/22 10:09:41;;;;;;;3.88;2.20;;;;;;;16.86;100.00;100594.31;6053732;23;20030;-60
2022/04/22 10:12:26;;;;;;;;;;;;;;;17.87;100.00;100594.34;6104442;23;20116;-59
2022/04/22 10:15:12;;;;;;;8.13;2.53;;;;;;;18.04;100.00;100584.75;6073682;23;19960;-59
2022/04/22 10:17:57;;;;;;;2.45;1.67;;;;;;;17.88;100.00;100588.06;6104069;23;20105;-59
2022/04/22 10:20:44;;;;;;;4.68;2.30;;;;;;;17.73;100.00;100578.75;6124463;23;20076;-57
2022/04/22 10:23:30;;;;;;;4.90;1.80;;;;;;;17.42;100.00;100551.31;6112531;23;20316;-61
2022/04/22 10:26:15;;;;;;;3.92;1.77;;;;;;;17.16;100.00;100574.53;6143294;23;20057;-59
2022/04/22 10:29:03;;;;;;;2.25;1.63;;;;;;;17.02;100.00;100576.81;6143161;23;20036;-60
2022/04/22 10:31:48;;;;;;;2.70;1.92;;;;;;;17.11;100.00;100582.75;6112458;23;20103;-60
2022/04/22 10:34:41;;;;;;;5.63;1.80;;;;;;;17.26;100.00;100578.66;6165210;23;20115;-57
2022/04/22 10:37:28;;;;;;;4.82;1.70;;;;;;;17.14;100.00;100579.06;6155039;23;20068;-58
2022/04/22 10:40:21;;;;;;;3.40;1.70;;;;;;;17.01;100.00;100554.47;6165752;23;20033;-63
2022/04/22 10:43:06;;;;;;;3.88;1.60;;;;;;;16.93;100.00;100571.75;6122301;23;20083;-60
2022/04/22 10:49:14;;;;;;;1.73;1.60;;;;;;;16.79;100.00;100547.22;6132998;23;20076;-63
2022/04/22 10:52:10;;;;;;;3.60;2.00;;;;;;;16.70;100.00;100572.47;6155605;23;20080;-62
2022/04/22 10:54:55;;;;;;;4.70;1.90;;;;;;;16.53;100.00;100565.91;6132711;23;20320;-59
2022/04/22 10:57:42;;;;;;;3.80;2.10;;;;;;;16.46;100.00;100562.53;6186741;23;20031;-58
2022/04/22 11:00:30;;;;;;;22.02;3.67;;;;;;;16.08;100.00;100537.84;6172327;23;20028;-59
2022/04/22 11:03:21;;;;;;;6.90;2.53;;;;;;;16.12;100.00;100561.81;6172763;23;20090;-56
2022/04/22 11:06:07;;;;;;;7.55;2.72;;;;;;;15.28;100.00;100566.84;6171582;23;20032;-59
2022/04/22 11:09:00;;;;;;;7.93;2.20;;;;;;;15.07;100.00;100556.69;6162607;23;20040;-59
2022/04/22 11:11:45;;;;;;;6.30;2.80;;;;;;;15.04;100.00;100559.47;6193799;23;20074;-59
2022/04/22 11:14:32;;;;;;;7.88;2.45;;;;;;;14.84;100.00;100558.22;6184584;23;20032;-60
2022/04/22 11:17:34;;;;;;;6.13;2.58;;;;;;;14.31;100.00;100554.13;6172032;23;20074;-56
2022/04/22 11:20:19;;;;;;;8.13;3.03;;;;;;;14.25;100.00;100550.72;6184447;23;20055;-58
2022/04/22 11:23:06;;;;;;;6.45;2.42;;;;;;;14.19;100.00;100519.69;6193630;23;20696;-59
2022/04/22 11:25:51;;;;;;;5.20;2.50;;;;;;;14.36;100.00;100541.56;6184844;23;20031;-58
2022/04/22 11:28:37;;;;;;;8.77;3.00;;;;;;;14.24;100.00;100540.97;6184061;23;20028;-60
2022/04/22 11:31:28;;;;;;;9.43;3.08;;;;;;;14.30;100.00;100543.47;6171980;23;20446;-59
2022/04/22 11:34:24;;;;;;;6.60;2.60;;;;;;;14.50;100.00;100544.78;6162599;23;20040;-57
2022/04/22 11:37:18;;;;;;;;;;;;;;;14.60;100.00;100540.13;6193982;23;20028;-59
2022/04/22 11:46:22;;;;;;;7.05;2.63;;;;;;;14.83;100.00;100524.41;6245062;22;20035;-56
2022/04/22 11:49:09;;;;;;;12.02;5.70;;;;;;;14.70;100.00;100529.16;6221595;23;20110;-58
2022/04/22 11:51:54;;;;;;;13.52;9.85;;;;;;;14.76;100.00;100523.69;6232046;23;20035;-62
2022/04/22 11:54:42;;;;;;;13.65;8.98;;;;;;;14.73;100.00;100522.88;6222898;23;20031;-59
2022/04/22 11:57:26;;;;;;;15.23;11.35;;;;;;;14.71;100.00;100522.06;6180280;23;20042;-59
2022/04/22 12:06:21;;;;;;;8.88;6.53;;;;;;;14.88;100.00;100510.03;6254175;23;20370;-58
2022/04/22 12:09:08;;;;;;;11.88;6.07;;;;;;;15.05;100.00;100480.19;6254399;23;20022;-57
2022/04/22 12:11:53;;;;;;;11.50;6.25;;;;;;;15.44;100.00;100503.19;6231657;23;20050;-61
2022/04/22 12:14:37;;;;;;;10.93;6.75;;;;;;;15.40;100.00;100497.06;6231286;23;20354;-57
2022/04/22 12:17:24;;;;;;;11.98;6.20;;;;;;;15.44;100.00;100503.19;6254387;23;20103;-58
2022/04/22 12:20:10;;;;;;;13.85;5.63;;;;;;;15.55;100.00;100507.31;6244240;23;20092;-60
2022/04/22 12:22:56;;;;;;;7.82;4.07;;;;;;;15.61;100.00;100496.44;6200047;23;20520;-61
2022/04/22 12:25:58;;;;;;;7.03;3.70;;;;;;;15.68;100.00;100500.72;6254135;23;20099;-59
2022/04/22 12:29:18;;;;;;;6.50;3.90;;;;;;;15.85;100.00;100505.53;6231460;23;20042;-62
2022/04/22 12:32:03;;;;;;;9.45;4.53;;;;;;;15.91;100.00;100505.38;6081083;23;20033;-61
2022/04/22 12:34:47;;;;;;;10.65;4.00;;;;;;;15.94;100.00;100491.91;6121938;23;20033;-61
2022/04/22 12:37:33;;;;;;;16.40;4.22;;;;;;;15.91;100.00;100468.78;6131544;23;20029;-62
2022/04/22 12:40:20;;;;;;;7.45;3.55;;;;;;;16.03;100.00;100494.31;6131602;23;20064;-59
2022/04/22 12:43:29;;;;;;;8.07;3.60;;;;;;;16.16;100.00;100484.97;6121963;23;20088;-56
2022/04/22 12:52:47;;;;;;;6.90;3.35;;;;;;;16.17;100.00;100481.38;6101137;23;20112;-60
2022/04/22 12:55:31;;;;;;;8.00;3.88;;;;;;;16.12;100.00;100481.53;6121463;23;20065;-60
2022/04/22 12:58:16;;;;;;;5.45;3.55;;;;;;;16.08;100.00;100478.97;6110366;23;20081;-60
2022/04/22 13:01:02;;;;;;;6.25;3.70;;;;;;;15.90;100.00;100477.75;6100894;23;20555;-59
2022/04/22 13:03:48;;;;;;;8.35;3.42;;;;;;;15.93;100.00;100474.09;6101055;23;20119;-58
2022/04/22 13:06:42;;;;;;;5.72;3.10;;;;;;;16.02;100.00;100458.66;6133664;23;20416;-60
2022/04/22 13:09:27;;;;;;;11.73;3.65;;;;;;;16.18;100.00;100475.13;6199489;23;20027;-59
2022/04/22 13:12:12;;;;;;;8.25;4.00;;;;;;;16.08;100.00;100466.50;6230911;23;20071;-58
2022/04/22 13:14:56;;;;;;;16.17;5.05;;;;;;;16.11;100.00;100465.50;6253838;23;20469;-61
2022/04/22 13:17:46;;;;;;;11.75;5.18;;;;;;;16.19;100.00;100467.03;6222095;23;20030;-58
2022/04/22 13:20:30;;;;;;;9.75;4.55;;;;;;;16.30;100.00;100467.53;6201173;23;20358;-59
2022/04/22 13:23:15;;;;;;;9.02;4.20;;;;;;;16.38;100.00;100459.28;6232587;23;20480;-59
2022/04/22 13:26:00;;;;;;;14.38;4.30;;;;;;;16.27;100.00;100456.06;6256280;23;20034;-60
2022/04/22 13:28:45;;;;;;;16.33;5.88;;;;;;;16.23;100.00;100452.63;6255941;23;20031;-59
2022/04/22 13:31:30;;;;;;;13.38;6.03;;;;;;;16.25;100.00;100449.88;6255715;23;20031;-58
2022/04/22 13:34:14;;;;;;;17.25;5.70;;;;;;;16.15;100.00;100451.13;6255981;23;20023;-58
2022/04/22 13:36:58;;;;;;;9.85;4.88;;;;;;;16.20;100.00;100452.72;6222885;23;20027;-59
2022/04/22 13:39:43;;;;;;;13.48;6.00;;;;;;;16.25;100.00;100447.22;6256260;23;20106;-57
2022/04/22 13:42:27;;;;;;;8.20;4.65;;;;;;;16.17;100.00;100449.25;6245142;23;20472;-61
2022/04/22 13:54:20;;;;;;;9.52;4.97;;;;;;;16.02;100.00;100412.31;6245562;23;20098;-60
2022/04/22 13:57:06;;;;;;;17.23;9.95;;;;;;;16.13;100.00;100429.75;6255569;23;20031;-59
2022/04/22 13:59:50;;;;;;;;;;;;;;;16.24;100.00;100441.00;6232828;23;20034;-65
2022/04/22 14:02:34;;;;;;;22.08;7.15;;;;;;;16.10;100.00;100437.88;6255113;23;20334;-62
2022/04/22 14:05:21;;;;;;;17.73;6.75;;;;;;;15.79;100.00;100420.16;6255643;23;20369;-59